sensor_id;sensor_type;location;lat;lon;timestamp;P1;durP1;ratioP1;P2;durP2;ratioP2
11677;SDS011;5895;41.950;24.372;2023-06-26T00:00:12;11.73;;;8.98;;
11677;SDS011;5895;41.950;24.372;2023-06-26T00:02:40;12.75;;;9.40;;
11677;SDS011;5895;41.950;24.372;2023-06-26T00:05:07;11.38;;;8.95;;
11677;SDS011;5895;41.950;24.372;2023-06-26T00:07:34;12.32;;;9.73;;
11677;SDS011;5895;41.950;24.372;2023-06-26T00:10:02;11.38;;;9.82;;
11677;SDS011;5895;41.950;24.372;2023-06-26T00:12:30;13.68;;;9.93;;
11677;SDS011;5895;41.950;24.372;2023-06-26T00:14:58;13.15;;;10.13;;
11677;SDS011;5895;41.950;24.372;2023-06-26T00:17:27;13.10;;;9.73;;
11677;SDS011;5895;41.950;24.372;2023-06-26T00:19:54;12.93;;;9.48;;
11677;SDS011;5895;41.950;24.372;2023-06-26T00:22:21;10.63;;;9.25;;
11677;SDS011;5895;41.950;24.372;2023-06-26T00:24:48;10.90;;;8.95;;
11677;SDS011;5895;41.950;24.372;2023-06-26T00:27:15;11.48;;;9.60;;
11677;SDS011;5895;41.950;24.372;2023-06-26T00:29:42;12.65;;;9.25;;
11677;SDS011;5895;41.950;24.372;2023-06-26T00:32:10;12.57;;;10.40;;
11677;SDS011;5895;41.950;24.372;2023-06-26T00:34:38;13.90;;;9.70;;
11677;SDS011;5895;41.950;24.372;2023-06-26T00:37:05;12.15;;;10.45;;
11677;SDS011;5895;41.950;24.372;2023-06-26T00:39:32;13.40;;;10.38;;
11677;SDS011;5895;41.950;24.372;2023-06-26T00:42:00;9.93;;;8.93;;
11677;SDS011;5895;41.950;24.372;2023-06-26T00:44:27;10.35;;;9.27;;
11677;SDS011;5895;41.950;24.372;2023-06-26T00:46:54;13.18;;;10.02;;
11677;SDS011;5895;41.950;24.372;2023-06-26T00:49:22;11.75;;;9.82;;
11677;SDS011;5895;41.950;24.372;2023-06-26T00:51:50;11.25;;;9.43;;
11677;SDS011;5895;41.950;24.372;2023-06-26T00:54:18;10.85;;;9.73;;
11677;SDS011;5895;41.950;24.372;2023-06-26T00:56:47;10.93;;;9.43;;
11677;SDS011;5895;41.950;24.372;2023-06-26T00:59:14;14.63;;;9.90;;
11677;SDS011;5895;41.950;24.372;2023-06-26T01:01:42;11.48;;;9.68;;
11677;SDS011;5895;41.950;24.372;2023-06-26T01:04:09;10.60;;;9.50;;
11677;SDS011;5895;41.950;24.372;2023-06-26T01:06:42;16.05;;;8.98;;
11677;SDS011;5895;41.950;24.372;2023-06-26T01:09:16;11.40;;;9.15;;
11677;SDS011;5895;41.950;24.372;2023-06-26T01:11:45;12.60;;;9.02;;
11677;SDS011;5895;41.950;24.372;2023-06-26T01:14:12;12.20;;;9.07;;
11677;SDS011;5895;41.950;24.372;2023-06-26T01:16:40;12.48;;;9.82;;
11677;SDS011;5895;41.950;24.372;2023-06-26T01:19:13;16.80;;;8.85;;
11677;SDS011;5895;41.950;24.372;2023-06-26T01:21:50;11.90;;;8.82;;
11677;SDS011;5895;41.950;24.372;2023-06-26T01:24:23;9.90;;;8.88;;
11677;SDS011;5895;41.950;24.372;2023-06-26T01:26:57;12.20;;;10.15;;
11677;SDS011;5895;41.950;24.372;2023-06-26T01:29:28;12.05;;;9.23;;
11677;SDS011;5895;41.950;24.372;2023-06-26T01:31:59;10.68;;;9.05;;
11677;SDS011;5895;41.950;24.372;2023-06-26T01:34:27;10.52;;;9.27;;
11677;SDS011;5895;41.950;24.372;2023-06-26T01:36:55;11.45;;;9.27;;
11677;SDS011;5895;41.950;24.372;2023-06-26T01:39:24;11.80;;;9.32;;
11677;SDS011;5895;41.950;24.372;2023-06-26T01:41:51;13.68;;;10.25;;
11677;SDS011;5895;41.950;24.372;2023-06-26T01:44:23;13.10;;;10.45;;
11677;SDS011;5895;41.950;24.372;2023-06-26T01:47:02;14.00;;;10.05;;
11677;SDS011;5895;41.950;24.372;2023-06-26T01:49:33;13.35;;;9.80;;
11677;SDS011;5895;41.950;24.372;2023-06-26T01:52:09;11.10;;;9.90;;
11677;SDS011;5895;41.950;24.372;2023-06-26T01:54:51;12.18;;;10.10;;
11677;SDS011;5895;41.950;24.372;2023-06-26T01:57:22;12.65;;;9.73;;
11677;SDS011;5895;41.950;24.372;2023-06-26T01:59:53;13.70;;;10.05;;
11677;SDS011;5895;41.950;24.372;2023-06-26T02:02:22;11.00;;;9.82;;
11677;SDS011;5895;41.950;24.372;2023-06-26T02:04:50;14.30;;;10.55;;
11677;SDS011;5895;41.950;24.372;2023-06-26T02:07:18;12.52;;;10.13;;
11677;SDS011;5895;41.950;24.372;2023-06-26T02:09:45;11.35;;;10.02;;
11677;SDS011;5895;41.950;24.372;2023-06-26T02:12:12;12.18;;;10.27;;
11677;SDS011;5895;41.950;24.372;2023-06-26T02:14:39;14.05;;;11.15;;
11677;SDS011;5895;41.950;24.372;2023-06-26T02:17:08;11.90;;;10.60;;
11677;SDS011;5895;41.950;24.372;2023-06-26T02:19:35;12.30;;;10.30;;
11677;SDS011;5895;41.950;24.372;2023-06-26T02:22:12;15.73;;;10.80;;
11677;SDS011;5895;41.950;24.372;2023-06-26T02:24:40;14.40;;;11.20;;
11677;SDS011;5895;41.950;24.372;2023-06-26T02:27:08;13.50;;;10.90;;
11677;SDS011;5895;41.950;24.372;2023-06-26T02:29:35;14.38;;;11.40;;
11677;SDS011;5895;41.950;24.372;2023-06-26T02:32:02;12.48;;;11.18;;
11677;SDS011;5895;41.950;24.372;2023-06-26T02:34:31;16.55;;;12.13;;
11677;SDS011;5895;41.950;24.372;2023-06-26T02:36:58;15.07;;;12.15;;
11677;SDS011;5895;41.950;24.372;2023-06-26T02:39:25;16.88;;;12.18;;
11677;SDS011;5895;41.950;24.372;2023-06-26T02:41:52;16.92;;;12.32;;
11677;SDS011;5895;41.950;24.372;2023-06-26T02:44:20;15.65;;;12.30;;
11677;SDS011;5895;41.950;24.372;2023-06-26T02:46:47;14.02;;;11.98;;
11677;SDS011;5895;41.950;24.372;2023-06-26T02:49:14;17.13;;;13.20;;
11677;SDS011;5895;41.950;24.372;2023-06-26T02:51:43;15.35;;;12.80;;
11677;SDS011;5895;41.950;24.372;2023-06-26T02:54:10;14.00;;;12.60;;
11677;SDS011;5895;41.950;24.372;2023-06-26T02:56:37;14.13;;;12.63;;
11677;SDS011;5895;41.950;24.372;2023-06-26T02:59:04;17.20;;;13.35;;
11677;SDS011;5895;41.950;24.372;2023-06-26T03:01:31;20.85;;;13.38;;
11677;SDS011;5895;41.950;24.372;2023-06-26T03:03:58;14.82;;;12.73;;
11677;SDS011;5895;41.950;24.372;2023-06-26T03:06:27;18.17;;;12.80;;
11677;SDS011;5895;41.950;24.372;2023-06-26T03:08:55;18.80;;;13.40;;
11677;SDS011;5895;41.950;24.372;2023-06-26T03:11:22;19.83;;;13.05;;
11677;SDS011;5895;41.950;24.372;2023-06-26T03:13:49;14.30;;;12.52;;
11677;SDS011;5895;41.950;24.372;2023-06-26T03:16:16;14.80;;;12.65;;
11677;SDS011;5895;41.950;24.372;2023-06-26T03:18:44;14.75;;;12.27;;
11677;SDS011;5895;41.950;24.372;2023-06-26T03:21:11;15.63;;;13.23;;
11677;SDS011;5895;41.950;24.372;2023-06-26T03:23:38;15.93;;;13.18;;
11677;SDS011;5895;41.950;24.372;2023-06-26T03:26:06;17.52;;;13.45;;
11677;SDS011;5895;41.950;24.372;2023-06-26T03:28:33;14.35;;;12.05;;
11677;SDS011;5895;41.950;24.372;2023-06-26T03:31:01;14.55;;;13.05;;
11677;SDS011;5895;41.950;24.372;2023-06-26T03:33:28;15.75;;;13.00;;
11677;SDS011;5895;41.950;24.372;2023-06-26T03:35:55;16.38;;;13.52;;
11677;SDS011;5895;41.950;24.372;2023-06-26T03:38:22;16.00;;;13.40;;
11677;SDS011;5895;41.950;24.372;2023-06-26T03:40:51;16.77;;;13.02;;
11677;SDS011;5895;41.950;24.372;2023-06-26T03:43:19;15.23;;;12.85;;
11677;SDS011;5895;41.950;24.372;2023-06-26T03:45:47;15.23;;;13.48;;
11677;SDS011;5895;41.950;24.372;2023-06-26T03:48:14;13.60;;;11.85;;
11677;SDS011;5895;41.950;24.372;2023-06-26T03:50:41;16.38;;;12.70;;
11677;SDS011;5895;41.950;24.372;2023-06-26T03:53:08;13.57;;;12.15;;
11677;SDS011;5895;41.950;24.372;2023-06-26T03:55:35;15.77;;;12.57;;
11677;SDS011;5895;41.950;24.372;2023-06-26T03:58:03;15.85;;;12.70;;
11677;SDS011;5895;41.950;24.372;2023-06-26T04:00:32;16.63;;;12.98;;
11677;SDS011;5895;41.950;24.372;2023-06-26T04:02:59;16.60;;;12.88;;
11677;SDS011;5895;41.950;24.372;2023-06-26T04:05:26;15.13;;;13.32;;
11677;SDS011;5895;41.950;24.372;2023-06-26T04:07:53;14.05;;;12.60;;
11677;SDS011;5895;41.950;24.372;2023-06-26T04:10:21;14.25;;;12.85;;
11677;SDS011;5895;41.950;24.372;2023-06-26T04:12:48;14.68;;;13.05;;
11677;SDS011;5895;41.950;24.372;2023-06-26T04:15:15;15.35;;;12.90;;
11677;SDS011;5895;41.950;24.372;2023-06-26T04:17:44;16.77;;;13.63;;
11677;SDS011;5895;41.950;24.372;2023-06-26T04:20:11;21.88;;;14.98;;
11677;SDS011;5895;41.950;24.372;2023-06-26T04:22:38;17.73;;;15.40;;
11677;SDS011;5895;41.950;24.372;2023-06-26T04:25:05;14.65;;;13.13;;
11677;SDS011;5895;41.950;24.372;2023-06-26T04:27:32;20.88;;;16.40;;
11677;SDS011;5895;41.950;24.372;2023-06-26T04:30:00;23.25;;;20.02;;
11677;SDS011;5895;41.950;24.372;2023-06-26T04:32:27;23.02;;;18.80;;
11677;SDS011;5895;41.950;24.372;2023-06-26T04:34:55;24.27;;;20.40;;
11677;SDS011;5895;41.950;24.372;2023-06-26T04:37:23;16.42;;;14.40;;
11677;SDS011;5895;41.950;24.372;2023-06-26T04:39:51;15.57;;;13.90;;
11677;SDS011;5895;41.950;24.372;2023-06-26T04:42:18;15.98;;;12.85;;
11677;SDS011;5895;41.950;24.372;2023-06-26T04:44:46;12.43;;;11.18;;
11677;SDS011;5895;41.950;24.372;2023-06-26T04:47:13;15.70;;;11.85;;
11677;SDS011;5895;41.950;24.372;2023-06-26T04:49:41;14.63;;;12.45;;
11677;SDS011;5895;41.950;24.372;2023-06-26T04:52:12;11.85;;;10.65;;
11677;SDS011;5895;41.950;24.372;2023-06-26T04:54:39;12.13;;;10.63;;
11677;SDS011;5895;41.950;24.372;2023-06-26T04:57:07;12.25;;;10.95;;
11677;SDS011;5895;41.950;24.372;2023-06-26T04:59:36;14.48;;;12.93;;
11677;SDS011;5895;41.950;24.372;2023-06-26T05:02:04;16.35;;;13.07;;
11677;SDS011;5895;41.950;24.372;2023-06-26T05:04:31;12.95;;;11.55;;
11677;SDS011;5895;41.950;24.372;2023-06-26T05:06:58;11.75;;;10.55;;
11677;SDS011;5895;41.950;24.372;2023-06-26T05:09:27;11.45;;;10.13;;
11677;SDS011;5895;41.950;24.372;2023-06-26T05:11:54;12.82;;;10.68;;
11677;SDS011;5895;41.950;24.372;2023-06-26T05:14:21;13.70;;;10.00;;
11677;SDS011;5895;41.950;24.372;2023-06-26T05:16:48;11.68;;;10.35;;
11677;SDS011;5895;41.950;24.372;2023-06-26T05:19:15;13.32;;;10.35;;
11677;SDS011;5895;41.950;24.372;2023-06-26T05:21:42;10.93;;;9.23;;
11677;SDS011;5895;41.950;24.372;2023-06-26T05:24:10;10.57;;;9.48;;
11677;SDS011;5895;41.950;24.372;2023-06-26T05:26:41;12.38;;;9.80;;
11677;SDS011;5895;41.950;24.372;2023-06-26T05:29:09;11.02;;;9.13;;
11677;SDS011;5895;41.950;24.372;2023-06-26T05:31:37;12.30;;;9.75;;
11677;SDS011;5895;41.950;24.372;2023-06-26T05:34:07;11.13;;;9.93;;
11677;SDS011;5895;41.950;24.372;2023-06-26T05:36:37;10.95;;;8.88;;
11677;SDS011;5895;41.950;24.372;2023-06-26T05:39:05;9.52;;;8.55;;
11677;SDS011;5895;41.950;24.372;2023-06-26T05:41:33;11.43;;;9.93;;
11677;SDS011;5895;41.950;24.372;2023-06-26T05:44:02;11.95;;;9.50;;
11677;SDS011;5895;41.950;24.372;2023-06-26T05:46:29;12.38;;;9.38;;
11677;SDS011;5895;41.950;24.372;2023-06-26T05:48:56;10.48;;;8.73;;
11677;SDS011;5895;41.950;24.372;2023-06-26T05:51:24;11.40;;;9.25;;
11677;SDS011;5895;41.950;24.372;2023-06-26T05:53:51;11.45;;;9.73;;
11677;SDS011;5895;41.950;24.372;2023-06-26T05:56:19;13.70;;;9.15;;
11677;SDS011;5895;41.950;24.372;2023-06-26T05:58:47;10.93;;;9.38;;
11677;SDS011;5895;41.950;24.372;2023-06-26T06:01:16;11.00;;;9.85;;
11677;SDS011;5895;41.950;24.372;2023-06-26T06:03:44;13.32;;;9.30;;
11677;SDS011;5895;41.950;24.372;2023-06-26T06:06:11;11.52;;;9.10;;
11677;SDS011;5895;41.950;24.372;2023-06-26T06:08:38;10.57;;;8.20;;
11677;SDS011;5895;41.950;24.372;2023-06-26T06:11:05;9.60;;;8.70;;
11677;SDS011;5895;41.950;24.372;2023-06-26T06:13:32;10.05;;;7.90;;
11677;SDS011;5895;41.950;24.372;2023-06-26T06:16:00;10.68;;;8.52;;
11677;SDS011;5895;41.950;24.372;2023-06-26T06:18:29;9.50;;;7.47;;
11677;SDS011;5895;41.950;24.372;2023-06-26T06:20:56;11.00;;;7.75;;
11677;SDS011;5895;41.950;24.372;2023-06-26T06:23:23;10.50;;;7.68;;
11677;SDS011;5895;41.950;24.372;2023-06-26T06:25:50;8.13;;;7.32;;
11677;SDS011;5895;41.950;24.372;2023-06-26T06:28:17;12.07;;;7.90;;
11677;SDS011;5895;41.950;24.372;2023-06-26T06:30:44;9.57;;;7.47;;
11677;SDS011;5895;41.950;24.372;2023-06-26T06:33:12;7.78;;;6.60;;
11677;SDS011;5895;41.950;24.372;2023-06-26T06:35:41;7.45;;;6.75;;
11677;SDS011;5895;41.950;24.372;2023-06-26T06:38:08;11.55;;;7.78;;
11677;SDS011;5895;41.950;24.372;2023-06-26T06:40:35;8.23;;;7.45;;
11677;SDS011;5895;41.950;24.372;2023-06-26T06:43:03;11.68;;;6.95;;
11677;SDS011;5895;41.950;24.372;2023-06-26T06:45:30;8.07;;;6.70;;
11677;SDS011;5895;41.950;24.372;2023-06-26T06:47:57;9.10;;;7.30;;
11677;SDS011;5895;41.950;24.372;2023-06-26T06:50:24;8.23;;;6.45;;
11677;SDS011;5895;41.950;24.372;2023-06-26T06:52:52;7.07;;;6.45;;
11677;SDS011;5895;41.950;24.372;2023-06-26T06:55:20;9.57;;;6.43;;
11677;SDS011;5895;41.950;24.372;2023-06-26T06:57:47;10.73;;;7.45;;
11677;SDS011;5895;41.950;24.372;2023-06-26T07:00:14;8.35;;;6.65;;
11677;SDS011;5895;41.950;24.372;2023-06-26T07:02:43;8.02;;;6.60;;
11677;SDS011;5895;41.950;24.372;2023-06-26T07:05:11;7.00;;;6.30;;
11677;SDS011;5895;41.950;24.372;2023-06-26T07:07:39;9.98;;;7.82;;
11677;SDS011;5895;41.950;24.372;2023-06-26T07:10:09;9.07;;;7.20;;
11677;SDS011;5895;41.950;24.372;2023-06-26T07:12:38;10.45;;;7.20;;
11677;SDS011;5895;41.950;24.372;2023-06-26T07:15:05;8.85;;;7.68;;
11677;SDS011;5895;41.950;24.372;2023-06-26T07:17:33;10.73;;;7.65;;
11677;SDS011;5895;41.950;24.372;2023-06-26T07:20:03;10.27;;;7.28;;
11677;SDS011;5895;41.950;24.372;2023-06-26T07:22:33;8.55;;;6.90;;
11677;SDS011;5895;41.950;24.372;2023-06-26T07:25:00;6.97;;;6.38;;
11677;SDS011;5895;41.950;24.372;2023-06-26T07:27:29;6.90;;;6.30;;
11677;SDS011;5895;41.950;24.372;2023-06-26T07:29:56;9.00;;;6.90;;
11677;SDS011;5895;41.950;24.372;2023-06-26T07:32:23;8.38;;;6.43;;
11677;SDS011;5895;41.950;24.372;2023-06-26T07:34:50;9.63;;;6.30;;
11677;SDS011;5895;41.950;24.372;2023-06-26T07:37:17;7.13;;;6.40;;
11677;SDS011;5895;41.950;24.372;2023-06-26T07:39:45;7.50;;;6.43;;
11677;SDS011;5895;41.950;24.372;2023-06-26T07:42:12;8.55;;;6.90;;
11677;SDS011;5895;41.950;24.372;2023-06-26T07:44:41;10.60;;;7.53;;
11677;SDS011;5895;41.950;24.372;2023-06-26T07:47:08;11.27;;;8.25;;
11677;SDS011;5895;41.950;24.372;2023-06-26T07:49:35;12.45;;;7.97;;
11677;SDS011;5895;41.950;24.372;2023-06-26T07:52:04;9.57;;;7.03;;
11677;SDS011;5895;41.950;24.372;2023-06-26T07:54:32;8.52;;;7.47;;
11677;SDS011;5895;41.950;24.372;2023-06-26T07:56:59;9.98;;;6.72;;
11677;SDS011;5895;41.950;24.372;2023-06-26T07:59:28;10.05;;;7.05;;
11677;SDS011;5895;41.950;24.372;2023-06-26T08:01:57;9.32;;;7.10;;
11677;SDS011;5895;41.950;24.372;2023-06-26T08:04:27;8.25;;;6.38;;
11677;SDS011;5895;41.950;24.372;2023-06-26T08:06:57;6.80;;;5.85;;
11677;SDS011;5895;41.950;24.372;2023-06-26T08:09:25;8.93;;;5.90;;
11677;SDS011;5895;41.950;24.372;2023-06-26T08:11:54;7.13;;;5.43;;
11677;SDS011;5895;41.950;24.372;2023-06-26T08:14:21;6.50;;;5.50;;
11677;SDS011;5895;41.950;24.372;2023-06-26T08:16:49;7.60;;;5.78;;
11677;SDS011;5895;41.950;24.372;2023-06-26T08:19:18;10.43;;;7.00;;
11677;SDS011;5895;41.950;24.372;2023-06-26T08:21:45;8.38;;;5.80;;
11677;SDS011;5895;41.950;24.372;2023-06-26T08:24:13;7.03;;;5.93;;
11677;SDS011;5895;41.950;24.372;2023-06-26T08:26:41;6.13;;;5.53;;
11677;SDS011;5895;41.950;24.372;2023-06-26T08:29:08;8.43;;;5.95;;
11677;SDS011;5895;41.950;24.372;2023-06-26T08:31:35;6.45;;;5.50;;
11677;SDS011;5895;41.950;24.372;2023-06-26T08:34:03;6.25;;;5.65;;
11677;SDS011;5895;41.950;24.372;2023-06-26T08:36:32;7.10;;;5.85;;
11677;SDS011;5895;41.950;24.372;2023-06-26T08:39:00;7.75;;;6.65;;
11677;SDS011;5895;41.950;24.372;2023-06-26T08:41:28;6.95;;;5.78;;
11677;SDS011;5895;41.950;24.372;2023-06-26T08:43:55;8.05;;;5.97;;
11677;SDS011;5895;41.950;24.372;2023-06-26T08:46:22;8.95;;;5.60;;
11677;SDS011;5895;41.950;24.372;2023-06-26T08:48:51;9.57;;;5.57;;
11677;SDS011;5895;41.950;24.372;2023-06-26T08:51:24;7.35;;;6.57;;
11677;SDS011;5895;41.950;24.372;2023-06-26T08:53:56;7.10;;;5.95;;
11677;SDS011;5895;41.950;24.372;2023-06-26T08:56:27;7.88;;;5.63;;
11677;SDS011;5895;41.950;24.372;2023-06-26T08:58:57;6.55;;;5.20;;
11677;SDS011;5895;41.950;24.372;2023-06-26T09:01:24;8.23;;;5.80;;
11677;SDS011;5895;41.950;24.372;2023-06-26T09:03:52;7.40;;;5.22;;
11677;SDS011;5895;41.950;24.372;2023-06-26T09:06:19;5.50;;;4.70;;
11677;SDS011;5895;41.950;24.372;2023-06-26T09:08:51;5.13;;;4.50;;
11677;SDS011;5895;41.950;24.372;2023-06-26T09:11:20;6.78;;;4.50;;
11677;SDS011;5895;41.950;24.372;2023-06-26T09:13:47;6.38;;;5.00;;
11677;SDS011;5895;41.950;24.372;2023-06-26T09:16:14;7.00;;;4.90;;
11677;SDS011;5895;41.950;24.372;2023-06-26T09:18:41;8.77;;;4.82;;
11677;SDS011;5895;41.950;24.372;2023-06-26T09:21:09;5.65;;;4.85;;
11677;SDS011;5895;41.950;24.372;2023-06-26T09:23:36;6.03;;;5.13;;
11677;SDS011;5895;41.950;24.372;2023-06-26T09:26:06;5.80;;;5.05;;
11677;SDS011;5895;41.950;24.372;2023-06-26T09:28:35;5.30;;;4.80;;
11677;SDS011;5895;41.950;24.372;2023-06-26T09:31:02;8.25;;;5.07;;
11677;SDS011;5895;41.950;24.372;2023-06-26T09:33:33;7.05;;;4.93;;
11677;SDS011;5895;41.950;24.372;2023-06-26T09:36:04;7.53;;;5.10;;
11677;SDS011;5895;41.950;24.372;2023-06-26T09:38:33;7.03;;;4.75;;
11677;SDS011;5895;41.950;24.372;2023-06-26T09:41:01;7.47;;;5.32;;
11677;SDS011;5895;41.950;24.372;2023-06-26T09:43:28;8.07;;;5.10;;
11677;SDS011;5895;41.950;24.372;2023-06-26T09:45:57;6.30;;;4.20;;
11677;SDS011;5895;41.950;24.372;2023-06-26T09:48:25;6.55;;;4.13;;
11677;SDS011;5895;41.950;24.372;2023-06-26T09:50:52;6.28;;;4.63;;
11677;SDS011;5895;41.950;24.372;2023-06-26T09:53:20;7.25;;;5.13;;
11677;SDS011;5895;41.950;24.372;2023-06-26T09:55:47;4.97;;;4.40;;
11677;SDS011;5895;41.950;24.372;2023-06-26T09:58:14;6.20;;;4.47;;
11677;SDS011;5895;41.950;24.372;2023-06-26T10:00:43;6.30;;;4.03;;
11677;SDS011;5895;41.950;24.372;2023-06-26T10:03:12;5.03;;;4.15;;
11677;SDS011;5895;41.950;24.372;2023-06-26T10:05:39;6.82;;;4.18;;
11677;SDS011;5895;41.950;24.372;2023-06-26T10:08:08;5.63;;;4.10;;
11677;SDS011;5895;41.950;24.372;2023-06-26T10:10:36;4.93;;;3.80;;
11677;SDS011;5895;41.950;24.372;2023-06-26T10:13:05;4.43;;;3.90;;
11677;SDS011;5895;41.950;24.372;2023-06-26T10:15:36;5.20;;;4.57;;
11677;SDS011;5895;41.950;24.372;2023-06-26T10:18:04;6.63;;;4.53;;
11677;SDS011;5895;41.950;24.372;2023-06-26T10:20:33;4.68;;;4.28;;
11677;SDS011;5895;41.950;24.372;2023-06-26T10:23:00;4.10;;;3.80;;
11677;SDS011;5895;41.950;24.372;2023-06-26T10:25:31;9.73;;;4.32;;
11677;SDS011;5895;41.950;24.372;2023-06-26T10:27:59;5.80;;;4.75;;
11677;SDS011;5895;41.950;24.372;2023-06-26T10:30:29;5.85;;;4.13;;
11677;SDS011;5895;41.950;24.372;2023-06-26T10:32:59;7.43;;;5.05;;
11677;SDS011;5895;41.950;24.372;2023-06-26T10:35:27;7.40;;;4.63;;
11677;SDS011;5895;41.950;24.372;2023-06-26T10:38:01;4.85;;;4.38;;
11677;SDS011;5895;41.950;24.372;2023-06-26T10:40:39;5.03;;;4.53;;
11677;SDS011;5895;41.950;24.372;2023-06-26T10:43:08;5.68;;;4.70;;
11677;SDS011;5895;41.950;24.372;2023-06-26T10:45:37;5.95;;;5.22;;
11677;SDS011;5895;41.950;24.372;2023-06-26T10:48:09;6.15;;;4.80;;
11677;SDS011;5895;41.950;24.372;2023-06-26T10:50:36;5.85;;;5.35;;
11677;SDS011;5895;41.950;24.372;2023-06-26T10:53:08;6.00;;;4.88;;
11677;SDS011;5895;41.950;24.372;2023-06-26T10:55:36;5.63;;;5.03;;
11677;SDS011;5895;41.950;24.372;2023-06-26T10:58:04;6.03;;;5.22;;
11677;SDS011;5895;41.950;24.372;2023-06-26T11:00:31;5.80;;;5.10;;
11677;SDS011;5895;41.950;24.372;2023-06-26T11:02:58;5.88;;;4.57;;
11677;SDS011;5895;41.950;24.372;2023-06-26T11:05:27;6.40;;;5.20;;
11677;SDS011;5895;41.950;24.372;2023-06-26T11:08:04;7.60;;;4.75;;
11677;SDS011;5895;41.950;24.372;2023-06-26T11:13:17;6.28;;;5.00;;
11677;SDS011;5895;41.950;24.372;2023-06-26T11:15:45;5.25;;;4.78;;
11677;SDS011;5895;41.950;24.372;2023-06-26T11:18:12;6.13;;;5.00;;
11677;SDS011;5895;41.950;24.372;2023-06-26T11:20:40;5.93;;;5.00;;
11677;SDS011;5895;41.950;24.372;2023-06-26T11:23:07;7.10;;;5.40;;
11677;SDS011;5895;41.950;24.372;2023-06-26T11:25:35;5.32;;;4.82;;
11677;SDS011;5895;41.950;24.372;2023-06-26T11:28:05;7.07;;;4.45;;
11677;SDS011;5895;41.950;24.372;2023-06-26T11:30:32;5.60;;;4.85;;
11677;SDS011;5895;41.950;24.372;2023-06-26T11:33:03;6.13;;;4.53;;
11677;SDS011;5895;41.950;24.372;2023-06-26T11:35:30;8.75;;;5.47;;
11677;SDS011;5895;41.950;24.372;2023-06-26T11:37:58;6.00;;;5.28;;
11677;SDS011;5895;41.950;24.372;2023-06-26T11:40:29;6.05;;;5.25;;
11677;SDS011;5895;41.950;24.372;2023-06-26T11:42:58;6.05;;;5.38;;
11677;SDS011;5895;41.950;24.372;2023-06-26T11:45:29;6.78;;;4.60;;
11677;SDS011;5895;41.950;24.372;2023-06-26T11:47:57;6.93;;;4.63;;
11677;SDS011;5895;41.950;24.372;2023-06-26T11:50:25;7.07;;;4.75;;
11677;SDS011;5895;41.950;24.372;2023-06-26T11:52:53;5.35;;;4.85;;
11677;SDS011;5895;41.950;24.372;2023-06-26T11:55:21;5.40;;;4.97;;
11677;SDS011;5895;41.950;24.372;2023-06-26T11:57:49;8.82;;;5.45;;
11677;SDS011;5895;41.950;24.372;2023-06-26T12:00:16;8.23;;;5.57;;
11677;SDS011;5895;41.950;24.372;2023-06-26T12:02:45;6.07;;;5.03;;
11677;SDS011;5895;41.950;24.372;2023-06-26T12:05:13;7.57;;;4.93;;
11677;SDS011;5895;41.950;24.372;2023-06-26T12:07:41;5.18;;;4.70;;
11677;SDS011;5895;41.950;24.372;2023-06-26T12:10:11;5.43;;;4.65;;
11677;SDS011;5895;41.950;24.372;2023-06-26T12:12:40;5.43;;;4.93;;
11677;SDS011;5895;41.950;24.372;2023-06-26T12:15:08;6.38;;;4.50;;
11677;SDS011;5895;41.950;24.372;2023-06-26T12:17:40;7.40;;;4.43;;
11677;SDS011;5895;41.950;24.372;2023-06-26T12:20:18;6.03;;;4.47;;
11677;SDS011;5895;41.950;24.372;2023-06-26T12:22:46;5.18;;;4.68;;
11677;SDS011;5895;41.950;24.372;2023-06-26T12:25:14;4.88;;;4.10;;
11677;SDS011;5895;41.950;24.372;2023-06-26T12:27:44;5.18;;;4.65;;
11677;SDS011;5895;41.950;24.372;2023-06-26T12:30:12;5.97;;;4.40;;
11677;SDS011;5895;41.950;24.372;2023-06-26T12:32:40;6.30;;;4.00;;
11677;SDS011;5895;41.950;24.372;2023-06-26T12:35:11;5.00;;;4.53;;
11677;SDS011;5895;41.950;24.372;2023-06-26T12:37:41;7.35;;;4.40;;
11677;SDS011;5895;41.950;24.372;2023-06-26T12:40:16;5.00;;;4.60;;
11677;SDS011;5895;41.950;24.372;2023-06-26T12:42:44;5.68;;;4.38;;
11677;SDS011;5895;41.950;24.372;2023-06-26T12:45:12;5.90;;;4.07;;
11677;SDS011;5895;41.950;24.372;2023-06-26T12:47:40;5.18;;;4.68;;
11677;SDS011;5895;41.950;24.372;2023-06-26T12:50:08;5.93;;;4.60;;
11677;SDS011;5895;41.950;24.372;2023-06-26T12:52:35;4.47;;;4.07;;
11677;SDS011;5895;41.950;24.372;2023-06-26T12:55:04;7.63;;;4.50;;
11677;SDS011;5895;41.950;24.372;2023-06-26T12:57:32;7.03;;;4.97;;
11677;SDS011;5895;41.950;24.372;2023-06-26T12:59:59;9.00;;;4.75;;
11677;SDS011;5895;41.950;24.372;2023-06-26T13:02:26;18.45;;;9.32;;
11677;SDS011;5895;41.950;24.372;2023-06-26T13:04:54;9.75;;;5.75;;
11677;SDS011;5895;41.950;24.372;2023-06-26T13:07:21;13.85;;;8.48;;
11677;SDS011;5895;41.950;24.372;2023-06-26T13:09:50;7.97;;;5.90;;
11677;SDS011;5895;41.950;24.372;2023-06-26T13:12:19;6.43;;;4.18;;
11677;SDS011;5895;41.950;24.372;2023-06-26T13:14:46;6.82;;;4.63;;
11677;SDS011;5895;41.950;24.372;2023-06-26T13:17:13;36.03;;;16.05;;
11677;SDS011;5895;41.950;24.372;2023-06-26T13:19:40;18.58;;;10.05;;
11677;SDS011;5895;41.950;24.372;2023-06-26T13:22:08;17.98;;;10.75;;
11677;SDS011;5895;41.950;24.372;2023-06-26T13:24:35;5.35;;;4.47;;
11677;SDS011;5895;41.950;24.372;2023-06-26T13:27:03;16.48;;;8.95;;
11677;SDS011;5895;41.950;24.372;2023-06-26T13:29:32;5.75;;;4.80;;
11677;SDS011;5895;41.950;24.372;2023-06-26T13:31:59;4.47;;;4.07;;
11677;SDS011;5895;41.950;24.372;2023-06-26T13:34:27;4.97;;;4.32;;
11677;SDS011;5895;41.950;24.372;2023-06-26T13:36:55;6.18;;;4.55;;
11677;SDS011;5895;41.950;24.372;2023-06-26T13:39:25;9.63;;;4.15;;
11677;SDS011;5895;41.950;24.372;2023-06-26T13:41:52;5.72;;;4.07;;
11677;SDS011;5895;41.950;24.372;2023-06-26T13:44:19;6.55;;;4.57;;
11677;SDS011;5895;41.950;24.372;2023-06-26T13:46:48;5.32;;;4.20;;
11677;SDS011;5895;41.950;24.372;2023-06-26T13:49:15;5.13;;;4.30;;
11677;SDS011;5895;41.950;24.372;2023-06-26T13:51:42;6.75;;;4.10;;
11677;SDS011;5895;41.950;24.372;2023-06-26T13:54:12;5.22;;;4.55;;
11677;SDS011;5895;41.950;24.372;2023-06-26T13:56:39;8.00;;;4.10;;
11677;SDS011;5895;41.950;24.372;2023-06-26T13:59:06;5.70;;;4.68;;
11677;SDS011;5895;41.950;24.372;2023-06-26T14:01:33;5.00;;;4.47;;
11677;SDS011;5895;41.950;24.372;2023-06-26T14:04:02;9.73;;;4.38;;
11677;SDS011;5895;41.950;24.372;2023-06-26T14:06:29;6.20;;;4.10;;
11677;SDS011;5895;41.950;24.372;2023-06-26T14:08:57;4.28;;;3.15;;
11677;SDS011;5895;41.950;24.372;2023-06-26T14:11:25;8.80;;;3.20;;
11677;SDS011;5895;41.950;24.372;2023-06-26T14:13:52;3.97;;;2.92;;
11677;SDS011;5895;41.950;24.372;2023-06-26T14:16:19;5.05;;;3.92;;
11677;SDS011;5895;41.950;24.372;2023-06-26T14:18:46;7.13;;;3.80;;
11677;SDS011;5895;41.950;24.372;2023-06-26T14:21:15;4.40;;;3.97;;
11677;SDS011;5895;41.950;24.372;2023-06-26T14:23:42;4.35;;;3.50;;
11677;SDS011;5895;41.950;24.372;2023-06-26T14:26:09;7.18;;;4.50;;
11677;SDS011;5895;41.950;24.372;2023-06-26T14:28:37;7.03;;;4.28;;
11677;SDS011;5895;41.950;24.372;2023-06-26T14:31:04;6.15;;;4.68;;
11677;SDS011;5895;41.950;24.372;2023-06-26T14:33:32;7.78;;;4.60;;
11677;SDS011;5895;41.950;24.372;2023-06-26T14:35:59;4.70;;;4.30;;
11677;SDS011;5895;41.950;24.372;2023-06-26T14:38:27;7.97;;;5.53;;
11677;SDS011;5895;41.950;24.372;2023-06-26T14:40:55;6.32;;;5.72;;
11677;SDS011;5895;41.950;24.372;2023-06-26T14:43:22;5.93;;;5.30;;
11677;SDS011;5895;41.950;24.372;2023-06-26T14:45:49;6.05;;;5.13;;